sensor_id;sensor_type;location;lat;lon;timestamp;P1;durP1;ratioP1;P2;durP2;ratioP2
35977;SDS011;22056;0.000;0.000;2022-07-22T00:02:17;2.95;;;1.00;;
35977;SDS011;22056;0.000;0.000;2022-07-22T00:04:43;2.65;;;1.42;;
35977;SDS011;22056;0.000;0.000;2022-07-22T00:07:10;2.38;;;0.93;;
35977;SDS011;22056;0.000;0.000;2022-07-22T00:09:36;1.67;;;1.20;;
35977;SDS011;22056;0.000;0.000;2022-07-22T00:12:02;2.28;;;1.27;;
35977;SDS011;22056;0.000;0.000;2022-07-22T00:14:29;2.55;;;1.30;;
35977;SDS011;22056;0.000;0.000;2022-07-22T00:16:55;1.48;;;1.00;;
35977;SDS011;22056;0.000;0.000;2022-07-22T00:19:21;1.48;;;1.25;;
35977;SDS011;22056;0.000;0.000;2022-07-22T00:21:50;2.45;;;1.17;;
35977;SDS011;22056;0.000;0.000;2022-07-22T00:24:16;2.22;;;1.10;;
35977;SDS011;22056;0.000;0.000;2022-07-22T00:26:43;3.45;;;1.40;;
35977;SDS011;22056;0.000;0.000;2022-07-22T00:29:09;1.63;;;1.20;;
35977;SDS011;22056;0.000;0.000;2022-07-22T00:31:35;2.28;;;0.90;;
35977;SDS011;22056;0.000;0.000;2022-07-22T00:34:02;1.70;;;1.00;;
35977;SDS011;22056;0.000;0.000;2022-07-22T00:36:31;1.38;;;0.93;;
35977;SDS011;22056;0.000;0.000;2022-07-22T00:38:58;1.33;;;0.90;;
35977;SDS011;22056;0.000;0.000;2022-07-22T00:41:24;1.40;;;1.00;;
35977;SDS011;22056;0.000;0.000;2022-07-22T00:44:01;1.60;;;1.10;;
35977;SDS011;22056;0.000;0.000;2022-07-22T00:46:28;3.25;;;1.17;;
35977;SDS011;22056;0.000;0.000;2022-07-22T00:48:54;1.27;;;1.00;;
35977;SDS011;22056;0.000;0.000;2022-07-22T00:51:21;1.70;;;1.10;;
35977;SDS011;22056;0.000;0.000;2022-07-22T00:53:48;1.65;;;1.00;;
35977;SDS011;22056;0.000;0.000;2022-07-22T00:56:15;2.05;;;1.35;;
35977;SDS011;22056;0.000;0.000;2022-07-22T00:58:41;1.45;;;1.17;;
35977;SDS011;22056;0.000;0.000;2022-07-22T01:01:07;1.25;;;0.90;;
35977;SDS011;22056;0.000;0.000;2022-07-22T01:03:35;2.17;;;1.00;;
35977;SDS011;22056;0.000;0.000;2022-07-22T01:06:01;1.83;;;0.95;;
35977;SDS011;22056;0.000;0.000;2022-07-22T01:08:27;1.40;;;1.00;;
35977;SDS011;22056;0.000;0.000;2022-07-22T01:10:53;1.05;;;0.73;;
35977;SDS011;22056;0.000;0.000;2022-07-22T01:13:20;1.33;;;0.93;;
35977;SDS011;22056;0.000;0.000;2022-07-22T01:15:46;1.85;;;0.95;;
35977;SDS011;22056;0.000;0.000;2022-07-22T01:18:12;2.63;;;1.00;;
35977;SDS011;22056;0.000;0.000;2022-07-22T01:20:38;1.60;;;1.10;;
35977;SDS011;22056;0.000;0.000;2022-07-22T01:23:04;1.48;;;0.98;;
35977;SDS011;22056;0.000;0.000;2022-07-22T01:25:31;1.58;;;1.02;;
35977;SDS011;22056;0.000;0.000;2022-07-22T01:27:57;2.67;;;1.10;;
35977;SDS011;22056;0.000;0.000;2022-07-22T01:30:23;1.17;;;1.00;;
35977;SDS011;22056;0.000;0.000;2022-07-22T01:32:49;2.00;;;1.10;;
35977;SDS011;22056;0.000;0.000;2022-07-22T01:35:15;1.20;;;0.90;;
35977;SDS011;22056;0.000;0.000;2022-07-22T01:37:42;1.35;;;1.10;;
35977;SDS011;22056;0.000;0.000;2022-07-22T01:40:08;1.85;;;1.10;;
35977;SDS011;22056;0.000;0.000;2022-07-22T01:42:34;2.70;;;1.00;;
35977;SDS011;22056;0.000;0.000;2022-07-22T01:45:01;1.15;;;0.93;;
35977;SDS011;22056;0.000;0.000;2022-07-22T01:47:27;1.25;;;0.90;;
35977;SDS011;22056;0.000;0.000;2022-07-22T01:49:53;1.08;;;0.90;;
35977;SDS011;22056;0.000;0.000;2022-07-22T01:52:19;1.27;;;1.08;;
35977;SDS011;22056;0.000;0.000;2022-07-22T01:54:45;1.48;;;1.00;;
35977;SDS011;22056;0.000;0.000;2022-07-22T01:57:12;1.67;;;1.05;;
35977;SDS011;22056;0.000;0.000;2022-07-22T01:59:38;0.80;;;0.80;;
35977;SDS011;22056;0.000;0.000;2022-07-22T02:02:04;1.60;;;0.80;;
35977;SDS011;22056;0.000;0.000;2022-07-22T02:04:30;1.38;;;1.05;;
35977;SDS011;22056;0.000;0.000;2022-07-22T02:06:56;4.03;;;1.10;;
35977;SDS011;22056;0.000;0.000;2022-07-22T02:09:22;1.60;;;1.00;;
35977;SDS011;22056;0.000;0.000;2022-07-22T02:11:49;1.30;;;1.05;;
35977;SDS011;22056;0.000;0.000;2022-07-22T02:14:15;2.05;;;1.10;;
35977;SDS011;22056;0.000;0.000;2022-07-22T02:16:41;1.50;;;1.00;;
35977;SDS011;22056;0.000;0.000;2022-07-22T02:19:08;1.08;;;0.90;;
35977;SDS011;22056;0.000;0.000;2022-07-22T02:21:34;2.00;;;1.00;;
35977;SDS011;22056;0.000;0.000;2022-07-22T02:24:00;1.30;;;1.15;;
35977;SDS011;22056;0.000;0.000;2022-07-22T02:26:26;1.77;;;1.10;;
35977;SDS011;22056;0.000;0.000;2022-07-22T02:28:52;1.20;;;1.10;;
35977;SDS011;22056;0.000;0.000;2022-07-22T02:31:19;1.20;;;0.93;;
35977;SDS011;22056;0.000;0.000;2022-07-22T02:33:45;1.85;;;1.30;;
35977;SDS011;22056;0.000;0.000;2022-07-22T02:36:12;0.95;;;0.90;;
35977;SDS011;22056;0.000;0.000;2022-07-22T02:38:38;1.25;;;1.08;;
35977;SDS011;22056;0.000;0.000;2022-07-22T02:41:04;1.27;;;1.17;;
35977;SDS011;22056;0.000;0.000;2022-07-22T02:43:30;1.25;;;1.08;;
35977;SDS011;22056;0.000;0.000;2022-07-22T02:45:57;1.55;;;1.15;;
35977;SDS011;22056;0.000;0.000;2022-07-22T02:48:23;1.35;;;1.05;;
35977;SDS011;22056;0.000;0.000;2022-07-22T02:50:49;1.10;;;0.90;;
35977;SDS011;22056;0.000;0.000;2022-07-22T02:53:15;1.77;;;1.00;;
35977;SDS011;22056;0.000;0.000;2022-07-22T02:55:42;0.85;;;0.80;;
35977;SDS011;22056;0.000;0.000;2022-07-22T02:58:08;1.00;;;0.90;;
35977;SDS011;22056;0.000;0.000;2022-07-22T03:00:35;1.27;;;0.80;;
35977;SDS011;22056;0.000;0.000;2022-07-22T03:03:03;1.70;;;1.00;;
35977;SDS011;22056;0.000;0.000;2022-07-22T03:05:29;1.00;;;0.90;;
35977;SDS011;22056;0.000;0.000;2022-07-22T03:07:55;2.22;;;1.20;;
35977;SDS011;22056;0.000;0.000;2022-07-22T03:10:22;1.42;;;0.90;;
35977;SDS011;22056;0.000;0.000;2022-07-22T03:12:48;1.17;;;1.00;;
35977;SDS011;22056;0.000;0.000;2022-07-22T03:15:14;1.08;;;0.98;;
35977;SDS011;22056;0.000;0.000;2022-07-22T03:17:40;1.73;;;1.13;;
35977;SDS011;22056;0.000;0.000;2022-07-22T03:20:07;1.25;;;0.90;;
35977;SDS011;22056;0.000;0.000;2022-07-22T03:22:34;1.90;;;1.20;;
35977;SDS011;22056;0.000;0.000;2022-07-22T03:25:01;1.50;;;0.98;;
35977;SDS011;22056;0.000;0.000;2022-07-22T03:27:27;1.52;;;0.90;;
35977;SDS011;22056;0.000;0.000;2022-07-22T03:29:53;1.35;;;1.10;;
35977;SDS011;22056;0.000;0.000;2022-07-22T03:32:19;1.13;;;1.00;;
35977;SDS011;22056;0.000;0.000;2022-07-22T03:34:46;1.60;;;0.90;;
35977;SDS011;22056;0.000;0.000;2022-07-22T03:37:12;1.10;;;0.80;;
35977;SDS011;22056;0.000;0.000;2022-07-22T03:39:38;0.80;;;0.80;;
35977;SDS011;22056;0.000;0.000;2022-07-22T03:42:04;1.50;;;0.80;;
35977;SDS011;22056;0.000;0.000;2022-07-22T03:44:30;1.20;;;1.00;;
35977;SDS011;22056;0.000;0.000;2022-07-22T03:46:56;1.15;;;0.95;;
35977;SDS011;22056;0.000;0.000;2022-07-22T03:49:23;1.60;;;0.90;;
35977;SDS011;22056;0.000;0.000;2022-07-22T03:51:49;1.10;;;0.90;;
35977;SDS011;22056;0.000;0.000;2022-07-22T03:54:15;1.67;;;1.05;;
35977;SDS011;22056;0.000;0.000;2022-07-22T03:56:42;1.50;;;0.95;;
35977;SDS011;22056;0.000;0.000;2022-07-22T03:59:08;1.60;;;1.15;;
35977;SDS011;22056;0.000;0.000;2022-07-22T04:01:34;0.88;;;0.80;;
35977;SDS011;22056;0.000;0.000;2022-07-22T04:04:00;1.17;;;1.00;;
35977;SDS011;22056;0.000;0.000;2022-07-22T04:06:26;1.20;;;0.90;;
35977;SDS011;22056;0.000;0.000;2022-07-22T04:08:53;2.42;;;1.17;;
35977;SDS011;22056;0.000;0.000;2022-07-22T04:11:20;1.88;;;1.10;;
35977;SDS011;22056;0.000;0.000;2022-07-22T04:13:46;2.20;;;1.00;;
35977;SDS011;22056;0.000;0.000;2022-07-22T04:16:12;2.00;;;0.88;;
35977;SDS011;22056;0.000;0.000;2022-07-22T04:18:38;2.72;;;1.13;;
35977;SDS011;22056;0.000;0.000;2022-07-22T04:21:05;3.45;;;1.27;;
35977;SDS011;22056;0.000;0.000;2022-07-22T04:23:31;1.58;;;1.08;;
35977;SDS011;22056;0.000;0.000;2022-07-22T04:25:57;1.80;;;1.02;;
35977;SDS011;22056;0.000;0.000;2022-07-22T04:28:24;2.25;;;1.08;;
35977;SDS011;22056;0.000;0.000;2022-07-22T04:30:50;1.80;;;1.05;;
35977;SDS011;22056;0.000;0.000;2022-07-22T04:33:16;3.20;;;1.10;;
35977;SDS011;22056;0.000;0.000;2022-07-22T04:35:43;1.92;;;1.10;;
35977;SDS011;22056;0.000;0.000;2022-07-22T04:38:09;1.92;;;1.10;;
35977;SDS011;22056;0.000;0.000;2022-07-22T04:40:35;3.45;;;1.00;;
35977;SDS011;22056;0.000;0.000;2022-07-22T04:43:01;6.95;;;1.10;;
35977;SDS011;22056;0.000;0.000;2022-07-22T04:45:28;2.55;;;1.00;;
35977;SDS011;22056;0.000;0.000;2022-07-22T04:47:54;2.33;;;1.00;;
35977;SDS011;22056;0.000;0.000;2022-07-22T04:50:20;2.45;;;0.85;;
35977;SDS011;22056;0.000;0.000;2022-07-22T04:52:47;2.45;;;1.25;;
35977;SDS011;22056;0.000;0.000;2022-07-22T04:55:13;1.95;;;0.90;;
35977;SDS011;22056;0.000;0.000;2022-07-22T04:57:39;3.05;;;1.10;;
35977;SDS011;22056;0.000;0.000;2022-07-22T05:00:05;1.23;;;0.98;;
35977;SDS011;22056;0.000;0.000;2022-07-22T05:02:32;4.28;;;1.20;;
35977;SDS011;22056;0.000;0.000;2022-07-22T05:04:58;1.85;;;1.00;;
35977;SDS011;22056;0.000;0.000;2022-07-22T05:07:24;3.53;;;1.20;;
35977;SDS011;22056;0.000;0.000;2022-07-22T05:09:51;1.80;;;1.05;;
35977;SDS011;22056;0.000;0.000;2022-07-22T05:12:17;1.48;;;1.20;;
35977;SDS011;22056;0.000;0.000;2022-07-22T05:14:43;1.83;;;1.25;;
35977;SDS011;22056;0.000;0.000;2022-07-22T05:17:10;1.48;;;0.93;;
35977;SDS011;22056;0.000;0.000;2022-07-22T05:19:39;3.95;;;1.15;;
35977;SDS011;22056;0.000;0.000;2022-07-22T05:22:06;4.25;;;1.15;;
35977;SDS011;22056;0.000;0.000;2022-07-22T05:24:33;4.63;;;1.50;;
35977;SDS011;22056;0.000;0.000;2022-07-22T05:26:59;1.88;;;1.25;;
35977;SDS011;22056;0.000;0.000;2022-07-22T05:29:26;2.35;;;1.20;;
35977;SDS011;22056;0.000;0.000;2022-07-22T05:31:52;2.50;;;1.30;;
35977;SDS011;22056;0.000;0.000;2022-07-22T05:34:18;2.05;;;1.10;;
35977;SDS011;22056;0.000;0.000;2022-07-22T05:36:44;1.35;;;0.90;;
35977;SDS011;22056;0.000;0.000;2022-07-22T05:39:11;1.40;;;1.00;;
35977;SDS011;22056;0.000;0.000;2022-07-22T05:41:37;2.33;;;1.13;;
35977;SDS011;22056;0.000;0.000;2022-07-22T05:44:03;2.60;;;0.98;;
35977;SDS011;22056;0.000;0.000;2022-07-22T05:46:30;2.85;;;0.98;;
35977;SDS011;22056;0.000;0.000;2022-07-22T05:48:56;3.10;;;0.95;;
35977;SDS011;22056;0.000;0.000;2022-07-22T05:51:22;2.58;;;1.30;;
35977;SDS011;22056;0.000;0.000;2022-07-22T05:53:49;5.03;;;1.35;;
35977;SDS011;22056;0.000;0.000;2022-07-22T05:56:15;5.32;;;1.60;;
35977;SDS011;22056;0.000;0.000;2022-07-22T05:58:42;4.28;;;1.10;;
35977;SDS011;22056;0.000;0.000;2022-07-22T06:01:09;5.53;;;1.30;;
35977;SDS011;22056;0.000;0.000;2022-07-22T06:03:35;3.63;;;1.20;;
35977;SDS011;22056;0.000;0.000;2022-07-22T06:06:02;4.32;;;1.20;;
35977;SDS011;22056;0.000;0.000;2022-07-22T06:08:30;5.22;;;1.00;;
35977;SDS011;22056;0.000;0.000;2022-07-22T06:10:57;4.32;;;1.02;;
35977;SDS011;22056;0.000;0.000;2022-07-22T06:13:24;3.13;;;1.05;;
35977;SDS011;22056;0.000;0.000;2022-07-22T06:15:50;3.90;;;1.05;;
35977;SDS011;22056;0.000;0.000;2022-07-22T06:18:16;2.08;;;1.05;;
35977;SDS011;22056;0.000;0.000;2022-07-22T06:20:43;4.03;;;0.80;;
35977;SDS011;22056;0.000;0.000;2022-07-22T06:23:09;3.20;;;1.00;;
35977;SDS011;22056;0.000;0.000;2022-07-22T06:25:35;5.00;;;0.93;;
35977;SDS011;22056;0.000;0.000;2022-07-22T06:28:01;2.40;;;0.73;;
35977;SDS011;22056;0.000;0.000;2022-07-22T06:30:27;2.67;;;1.15;;
35977;SDS011;22056;0.000;0.000;2022-07-22T06:32:54;2.20;;;1.08;;
35977;SDS011;22056;0.000;0.000;2022-07-22T06:35:20;3.72;;;1.00;;
35977;SDS011;22056;0.000;0.000;2022-07-22T06:37:46;2.92;;;1.00;;
35977;SDS011;22056;0.000;0.000;2022-07-22T06:40:12;3.53;;;1.00;;
35977;SDS011;22056;0.000;0.000;2022-07-22T06:42:39;2.25;;;0.98;;
35977;SDS011;22056;0.000;0.000;2022-07-22T06:45:05;4.32;;;1.30;;
35977;SDS011;22056;0.000;0.000;2022-07-22T06:47:31;3.90;;;1.45;;
35977;SDS011;22056;0.000;0.000;2022-07-22T06:50:00;3.95;;;1.10;;
35977;SDS011;22056;0.000;0.000;2022-07-22T06:52:27;2.03;;;0.80;;
35977;SDS011;22056;0.000;0.000;2022-07-22T06:54:53;3.22;;;1.02;;
35977;SDS011;22056;0.000;0.000;2022-07-22T06:57:19;3.60;;;1.10;;
35977;SDS011;22056;0.000;0.000;2022-07-22T06:59:45;2.05;;;1.00;;
35977;SDS011;22056;0.000;0.000;2022-07-22T07:02:11;4.38;;;1.08;;
35977;SDS011;22056;0.000;0.000;2022-07-22T07:04:37;3.35;;;1.00;;
35977;SDS011;22056;0.000;0.000;2022-07-22T07:07:03;3.63;;;1.23;;
35977;SDS011;22056;0.000;0.000;2022-07-22T07:09:29;3.15;;;1.00;;
35977;SDS011;22056;0.000;0.000;2022-07-22T07:11:56;2.72;;;1.30;;
35977;SDS011;22056;0.000;0.000;2022-07-22T07:14:22;3.10;;;0.85;;
35977;SDS011;22056;0.000;0.000;2022-07-22T07:16:48;4.38;;;1.27;;
35977;SDS011;22056;0.000;0.000;2022-07-22T07:19:14;2.53;;;1.15;;
35977;SDS011;22056;0.000;0.000;2022-07-22T07:21:40;3.60;;;1.15;;
35977;SDS011;22056;0.000;0.000;2022-07-22T07:24:06;2.85;;;0.80;;
35977;SDS011;22056;0.000;0.000;2022-07-22T07:26:33;3.05;;;0.85;;
35977;SDS011;22056;0.000;0.000;2022-07-22T07:28:59;2.92;;;1.10;;
35977;SDS011;22056;0.000;0.000;2022-07-22T07:31:25;1.95;;;0.73;;
35977;SDS011;22056;0.000;0.000;2022-07-22T07:33:51;3.15;;;1.00;;
35977;SDS011;22056;0.000;0.000;2022-07-22T07:36:19;3.22;;;1.38;;
35977;SDS011;22056;0.000;0.000;2022-07-22T07:38:45;1.95;;;1.15;;
35977;SDS011;22056;0.000;0.000;2022-07-22T07:41:11;3.00;;;0.93;;
35977;SDS011;22056;0.000;0.000;2022-07-22T07:43:37;2.45;;;0.85;;
35977;SDS011;22056;0.000;0.000;2022-07-22T07:46:03;3.30;;;0.90;;
35977;SDS011;22056;0.000;0.000;2022-07-22T07:48:30;2.35;;;0.93;;
35977;SDS011;22056;0.000;0.000;2022-07-22T07:50:56;2.28;;;0.90;;
35977;SDS011;22056;0.000;0.000;2022-07-22T07:53:22;2.55;;;1.00;;
35977;SDS011;22056;0.000;0.000;2022-07-22T07:55:49;2.30;;;1.02;;
35977;SDS011;22056;0.000;0.000;2022-07-22T07:58:15;3.25;;;1.00;;
35977;SDS011;22056;0.000;0.000;2022-07-22T08:00:41;4.15;;;1.23;;
35977;SDS011;22056;0.000;0.000;2022-07-22T08:03:07;2.65;;;1.00;;
35977;SDS011;22056;0.000;0.000;2022-07-22T08:05:34;3.33;;;1.13;;
35977;SDS011;22056;0.000;0.000;2022-07-22T08:08:01;4.47;;;1.30;;
35977;SDS011;22056;0.000;0.000;2022-07-22T08:10:27;2.55;;;1.05;;
35977;SDS011;22056;0.000;0.000;2022-07-22T08:12:53;3.42;;;0.90;;
35977;SDS011;22056;0.000;0.000;2022-07-22T08:15:21;2.47;;;0.88;;
35977;SDS011;22056;0.000;0.000;2022-07-22T08:17:47;4.93;;;1.13;;
35977;SDS011;22056;0.000;0.000;2022-07-22T08:20:13;3.75;;;1.40;;
35977;SDS011;22056;0.000;0.000;2022-07-22T08:22:39;3.83;;;1.10;;
35977;SDS011;22056;0.000;0.000;2022-07-22T08:25:06;4.82;;;1.60;;
35977;SDS011;22056;0.000;0.000;2022-07-22T08:27:33;2.25;;;0.70;;
35977;SDS011;22056;0.000;0.000;2022-07-22T08:29:59;3.72;;;1.20;;
35977;SDS011;22056;0.000;0.000;2022-07-22T08:32:29;3.63;;;1.30;;
35977;SDS011;22056;0.000;0.000;2022-07-22T08:34:55;2.67;;;1.15;;
35977;SDS011;22056;0.000;0.000;2022-07-22T08:37:22;4.53;;;1.23;;
35977;SDS011;22056;0.000;0.000;2022-07-22T08:39:48;3.03;;;0.90;;
35977;SDS011;22056;0.000;0.000;2022-07-22T08:42:14;3.35;;;1.27;;
35977;SDS011;22056;0.000;0.000;2022-07-22T08:44:40;4.20;;;1.20;;
35977;SDS011;22056;0.000;0.000;2022-07-22T08:47:07;3.92;;;1.02;;
35977;SDS011;22056;0.000;0.000;2022-07-22T08:49:33;2.50;;;1.02;;
35977;SDS011;22056;0.000;0.000;2022-07-22T08:52:00;5.43;;;1.42;;
35977;SDS011;22056;0.000;0.000;2022-07-22T08:54:26;3.70;;;0.98;;
35977;SDS011;22056;0.000;0.000;2022-07-22T08:56:52;2.03;;;1.10;;
35977;SDS011;22056;0.000;0.000;2022-07-22T08:59:19;3.78;;;0.90;;
35977;SDS011;22056;0.000;0.000;2022-07-22T09:02:04;3.25;;;1.15;;
35977;SDS011;22056;0.000;0.000;2022-07-22T09:04:31;4.68;;;1.10;;
35977;SDS011;22056;0.000;0.000;2022-07-22T09:06:57;3.88;;;1.02;;
35977;SDS011;22056;0.000;0.000;2022-07-22T09:09:33;5.22;;;1.30;;
35977;SDS011;22056;0.000;0.000;2022-07-22T09:12:06;4.90;;;1.13;;
35977;SDS011;22056;0.000;0.000;2022-07-22T09:14:49;4.68;;;1.17;;
35977;SDS011;22056;0.000;0.000;2022-07-22T09:17:22;2.25;;;1.00;;
35977;SDS011;22056;0.000;0.000;2022-07-22T09:19:49;4.30;;;0.95;;
35977;SDS011;22056;0.000;0.000;2022-07-22T09:22:21;4.72;;;1.38;;
35977;SDS011;22056;0.000;0.000;2022-07-22T09:24:55;2.22;;;1.02;;
35977;SDS011;22056;0.000;0.000;2022-07-22T09:27:22;4.13;;;0.80;;
35977;SDS011;22056;0.000;0.000;2022-07-22T09:29:49;4.43;;;1.08;;
35977;SDS011;22056;0.000;0.000;2022-07-22T09:32:15;5.75;;;1.30;;
35977;SDS011;22056;0.000;0.000;2022-07-22T09:34:41;5.95;;;1.42;;
35977;SDS011;22056;0.000;0.000;2022-07-22T09:37:08;2.28;;;1.10;;
35977;SDS011;22056;0.000;0.000;2022-07-22T09:39:34;2.08;;;0.93;;
35977;SDS011;22056;0.000;0.000;2022-07-22T09:42:01;5.70;;;1.05;;
35977;SDS011;22056;0.000;0.000;2022-07-22T09:44:27;2.92;;;1.15;;
35977;SDS011;22056;0.000;0.000;2022-07-22T09:47:00;7.13;;;1.50;;
35977;SDS011;22056;0.000;0.000;2022-07-22T09:49:30;1.73;;;0.88;;
35977;SDS011;22056;0.000;0.000;2022-07-22T09:51:57;3.53;;;1.00;;
35977;SDS011;22056;0.000;0.000;2022-07-22T09:54:23;3.22;;;1.30;;
35977;SDS011;22056;0.000;0.000;2022-07-22T09:56:50;3.05;;;1.08;;
35977;SDS011;22056;0.000;0.000;2022-07-22T09:59:17;2.83;;;1.20;;
35977;SDS011;22056;0.000;0.000;2022-07-22T10:01:43;4.53;;;1.10;;
35977;SDS011;22056;0.000;0.000;2022-07-22T10:04:09;5.93;;;1.17;;
35977;SDS011;22056;0.000;0.000;2022-07-22T10:06:39;2.03;;;1.00;;
35977;SDS011;22056;0.000;0.000;2022-07-22T10:09:06;2.60;;;0.93;;
35977;SDS011;22056;0.000;0.000;2022-07-22T10:11:33;6.80;;;1.45;;
35977;SDS011;22056;0.000;0.000;2022-07-22T10:14:01;4.25;;;0.93;;
35977;SDS011;22056;0.000;0.000;2022-07-22T10:16:27;2.20;;;0.85;;
35977;SDS011;22056;0.000;0.000;2022-07-22T10:18:54;4.07;;;0.90;;
35977;SDS011;22056;0.000;0.000;2022-07-22T10:21:20;3.92;;;1.10;;
35977;SDS011;22056;0.000;0.000;2022-07-22T10:26:48;5.97;;;1.17;;
35977;SDS011;22056;0.000;0.000;2022-07-22T10:29:31;2.97;;;1.02;;
35977;SDS011;22056;0.000;0.000;2022-07-22T10:40:13;1.17;;;0.80;;
35977;SDS011;22056;0.000;0.000;2022-07-22T10:45:24;2.97;;;1.10;;
35977;SDS011;22056;0.000;0.000;2022-07-22T10:47:54;1.90;;;0.80;;
35977;SDS011;22056;0.000;0.000;2022-07-22T10:53:06;2.78;;;1.17;;
35977;SDS011;22056;0.000;0.000;2022-07-22T10:55:33;4.05;;;1.15;;
35977;SDS011;22056;0.000;0.000;2022-07-22T10:57:59;3.13;;;0.80;;
35977;SDS011;22056;0.000;0.000;2022-07-22T11:00:26;4.32;;;1.13;;
35977;SDS011;22056;0.000;0.000;2022-07-22T11:02:52;1.48;;;0.93;;
35977;SDS011;22056;0.000;0.000;2022-07-22T11:05:25;3.15;;;1.02;;
35977;SDS011;22056;0.000;0.000;2022-07-22T11:07:51;2.13;;;0.88;;
35977;SDS011;22056;0.000;0.000;2022-07-22T11:10:18;3.45;;;1.20;;
35977;SDS011;22056;0.000;0.000;2022-07-22T11:12:45;2.50;;;1.10;;
35977;SDS011;22056;0.000;0.000;2022-07-22T11:15:12;4.50;;;0.95;;
35977;SDS011;22056;0.000;0.000;2022-07-22T11:17:38;1.60;;;0.90;;
35977;SDS011;22056;0.000;0.000;2022-07-22T11:20:08;2.83;;;0.73;;
35977;SDS011;22056;0.000;0.000;2022-07-22T11:22:36;2.00;;;0.90;;
35977;SDS011;22056;0.000;0.000;2022-07-22T11:25:06;6.30;;;1.58;;
35977;SDS011;22056;0.000;0.000;2022-07-22T11:27:33;2.13;;;1.00;;
35977;SDS011;22056;0.000;0.000;2022-07-22T11:29:59;2.08;;;0.80;;
35977;SDS011;22056;0.000;0.000;2022-07-22T11:32:26;2.17;;;0.98;;
35977;SDS011;22056;0.000;0.000;2022-07-22T11:34:55;1.92;;;1.10;;
35977;SDS011;22056;0.000;0.000;2022-07-22T11:37:23;2.75;;;1.00;;
35977;SDS011;22056;0.000;0.000;2022-07-22T11:39:50;5.35;;;0.90;;
35977;SDS011;22056;0.000;0.000;2022-07-22T11:42:16;5.18;;;1.42;;
35977;SDS011;22056;0.000;0.000;2022-07-22T11:44:42;3.33;;;1.05;;
35977;SDS011;22056;0.000;0.000;2022-07-22T11:47:09;2.72;;;0.85;;
35977;SDS011;22056;0.000;0.000;2022-07-22T11:49:37;2.38;;;1.00;;
35977;SDS011;22056;0.000;0.000;2022-07-22T11:52:05;5.40;;;1.00;;
35977;SDS011;22056;0.000;0.000;2022-07-22T11:54:32;5.15;;;1.13;;
35977;SDS011;22056;0.000;0.000;2022-07-22T11:56:59;1.70;;;0.85;;
35977;SDS011;22056;0.000;0.000;2022-07-22T11:59:25;5.22;;;1.20;;
35977;SDS011;22056;0.000;0.000;2022-07-22T12:01:51;3.40;;;0.93;;
35977;SDS011;22056;0.000;0.000;2022-07-22T12:04:24;1.70;;;0.82;;
35977;SDS011;22056;0.000;0.000;2022-07-22T12:06:51;5.07;;;1.00;;
35977;SDS011;22056;0.000;0.000;2022-07-22T12:11:46;2.80;;;1.02;;
35977;SDS011;22056;0.000;0.000;2022-07-22T12:14:14;2.53;;;1.15;;
35977;SDS011;22056;0.000;0.000;2022-07-22T12:16:41;2.75;;;0.82;;
35977;SDS011;22056;0.000;0.000;2022-07-22T12:19:10;4.88;;;1.10;;
35977;SDS011;22056;0.000;0.000;2022-07-22T12:21:49;2.78;;;1.00;;
35977;SDS011;22056;0.000;0.000;2022-07-22T12:26:58;2.00;;;0.90;;
35977;SDS011;22056;0.000;0.000;2022-07-22T12:31:52;5.38;;;1.15;;
35977;SDS011;22056;0.000;0.000;2022-07-22T12:34:35;5.90;;;1.05;;
35977;SDS011;22056;0.000;0.000;2022-07-22T12:37:14;3.90;;;1.02;;
35977;SDS011;22056;0.000;0.000;2022-07-22T12:39:57;9.77;;;1.58;;
35977;SDS011;22056;0.000;0.000;2022-07-22T12:42:28;2.40;;;1.02;;
35977;SDS011;22056;0.000;0.000;2022-07-22T12:52:47;4.57;;;1.27;;
35977;SDS011;22056;0.000;0.000;2022-07-22T12:55:13;3.45;;;1.33;;
35977;SDS011;22056;0.000;0.000;2022-07-22T12:57:39;4.68;;;1.80;;
35977;SDS011;22056;0.000;0.000;2022-07-22T13:00:06;13.07;;;2.60;;
35977;SDS011;22056;0.000;0.000;2022-07-22T13:02:32;21.38;;;2.65;;
35977;SDS011;22056;0.000;0.000;2022-07-22T13:04:59;9.93;;;1.73;;
35977;SDS011;22056;0.000;0.000;2022-07-22T13:07:25;9.15;;;1.77;;
35977;SDS011;22056;0.000;0.000;2022-07-22T13:09:51;6.60;;;1.65;;
35977;SDS011;22056;0.000;0.000;2022-07-22T13:12:18;5.65;;;1.17;;
35977;SDS011;22056;0.000;0.000;2022-07-22T13:14:44;9.98;;;1.70;;
35977;SDS011;22056;0.000;0.000;2022-07-22T13:17:10;6.43;;;1.10;;
35977;SDS011;22056;0.000;0.000;2022-07-22T13:19:37;6.25;;;1.25;;
35977;SDS011;22056;0.000;0.000;2022-07-22T13:22:03;6.20;;;1.17;;
35977;SDS011;22056;0.000;0.000;2022-07-22T13:24:30;5.28;;;1.15;;
35977;SDS011;22056;0.000;0.000;2022-07-22T13:26:56;5.05;;;1.10;;
35977;SDS011;22056;0.000;0.000;2022-07-22T13:29:22;3.67;;;1.00;;
35977;SDS011;22056;0.000;0.000;2022-07-22T13:31:48;7.35;;;1.25;;
35977;SDS011;22056;0.000;0.000;2022-07-22T13:34:15;4.30;;;1.45;;
35977;SDS011;22056;0.000;0.000;2022-07-22T13:36:41;7.68;;;1.20;;
35977;SDS011;22056;0.000;0.000;2022-07-22T13:39:07;9.63;;;1.48;;
35977;SDS011;22056;0.000;0.000;2022-07-22T13:41:34;5.40;;;1.20;;
35977;SDS011;22056;0.000;0.000;2022-07-22T13:44:00;10.43;;;1.52;;
35977;SDS011;22056;0.000;0.000;2022-07-22T13:46:26;6.75;;;1.58;;
35977;SDS011;22056;0.000;0.000;2022-07-22T13:48:52;8.63;;;1.55;;
35977;SDS011;22056;0.000;0.000;2022-07-22T13:51:19;5.93;;;1.20;;
35977;SDS011;22056;0.000;0.000;2022-07-22T13:53:45;8.80;;;1.52;;
35977;SDS011;22056;0.000;0.000;2022-07-22T13:56:11;9.07;;;1.58;;
35977;SDS011;22056;0.000;0.000;2022-07-22T13:58:38;11.73;;;1.35;;
35977;SDS011;22056;0.000;0.000;2022-07-22T14:01:06;5.20;;;1.40;;
35977;SDS011;22056;0.000;0.000;2022-07-22T14:03:32;8.05;;;1.45;;
35977;SDS011;22056;0.000;0.000;2022-07-22T14:05:58;7.78;;;1.48;;
35977;SDS011;22056;0.000;0.000;2022-07-22T14:08:25;6.05;;;1.55;;
35977;SDS011;22056;0.000;0.000;2022-07-22T14:10:51;11.85;;;1.58;;
35977;SDS011;22056;0.000;0.000;2022-07-22T14:13:17;6.00;;;1.73;;
35977;SDS011;22056;0.000;0.000;2022-07-22T14:15:43;8.55;;;1.48;;
35977;SDS011;22056;0.000;0.000;2022-07-22T14:18:09;11.13;;;1.42;;
35977;SDS011;22056;0.000;0.000;2022-07-22T14:20:35;3.88;;;1.35;;
35977;SDS011;22056;0.000;0.000;2022-07-22T14:23:02;9.10;;;1.60;;
35977;SDS011;22056;0.000;0.000;2022-07-22T14:25:30;5.97;;;1.50;;
35977;SDS011;22056;0.000;0.000;2022-07-22T14:27:56;4.43;;;1.23;;
35977;SDS011;22056;0.000;0.000;2022-07-22T14:30:23;5.63;;;1.42;;
35977;SDS011;22056;0.000;0.000;2022-07-22T14:32:49;7.05;;;1.42;;
35977;SDS011;22056;0.000;0.000;2022-07-22T14:35:15;6.30;;;1.60;;
35977;SDS011;22056;0.000;0.000;2022-07-22T14:37:42;7.30;;;1.65;;
35977;SDS011;22056;0.000;0.000;2022-07-22T14:40:08;7.15;;;1.33;;
35977;SDS011;22056;0.000;0.000;2022-07-22T14:42:34;5.68;;;1.10;;
35977;SDS011;22056;0.000;0.000;2022-07-22T14:45:00;5.38;;;1.70;;
35977;SDS011;22056;0.000;0.000;2022-07-22T14:47:27;6.20;;;1.20;;
35977;SDS011;22056;0.000;0.000;2022-07-22T14:49:54;4.70;;;1.00;;
35977;SDS011;22056;0.000;0.000;2022-07-22T14:52:20;4.18;;;1.27;;
35977;SDS011;22056;0.000;0.000;2022-07-22T14:54:46;8.00;;;1.33;;
35977;SDS011;22056;0.000;0.000;2022-07-22T14:57:12;9.32;;;1.45;;
35977;SDS011;22056;0.000;0.000;2022-07-22T14:59:38;3.38;;;1.02;;
35977;SDS011;22056;0.000;0.000;2022-07-22T15:02:05;4.82;;;1.02;;
35977;SDS011;22056;0.000;0.000;2022-07-22T15:04:31;8.02;;;1.42;;
35977;SDS011;22056;0.000;0.000;2022-07-22T15:06:57;7.32;;;1.83;;
35977;SDS011;22056;0.000;0.000;2022-07-22T15:09:24;2.58;;;1.17;;
35977;SDS011;22056;0.000;0.000;2022-07-22T15:11:50;2.72;;;0.98;;
35977;SDS011;22056;0.000;0.000;2022-07-22T15:14:17;4.70;;;1.20;;
35977;SDS011;22056;0.000;0.000;2022-07-22T15:16:43;4.90;;;1.05;;
35977;SDS011;22056;0.000;0.000;2022-07-22T15:19:09;4.50;;;1.00;;
35977;SDS011;22056;0.000;0.000;2022-07-22T15:21:37;3.83;;;1.00;;
35977;SDS011;22056;0.000;0.000;2022-07-22T15:24:04;3.03;;;0.95;;
35977;SDS011;22056;0.000;0.000;2022-07-22T15:26:30;2.63;;;0.90;;
35977;SDS011;22056;0.000;0.000;2022-07-22T15:28:57;4.57;;;1.25;;
35977;SDS011;22056;0.000;0.000;2022-07-22T15:31:24;5.22;;;0.90;;